sensor_id;sensor_type;location;lat;lon;timestamp;P1;durP1;ratioP1;P2;durP2;ratioP2
72864;SDS011;61000;48.120;11.548;2023-03-23T00:01:23;3.53;;;3.00;;
72864;SDS011;61000;48.120;11.548;2023-03-23T00:03:55;3.72;;;3.17;;
72864;SDS011;61000;48.120;11.548;2023-03-23T00:06:23;3.70;;;3.10;;
72864;SDS011;61000;48.120;11.548;2023-03-23T00:08:52;4.35;;;3.35;;
72864;SDS011;61000;48.120;11.548;2023-03-23T00:11:26;6.10;;;3.00;;
72864;SDS011;61000;48.120;11.548;2023-03-23T00:13:55;3.95;;;2.72;;
72864;SDS011;61000;48.120;11.548;2023-03-23T00:16:26;3.80;;;3.10;;
72864;SDS011;61000;48.120;11.548;2023-03-23T00:18:58;3.38;;;2.90;;
72864;SDS011;61000;48.120;11.548;2023-03-23T00:21:27;4.10;;;2.83;;
72864;SDS011;61000;48.120;11.548;2023-03-23T00:24:00;5.40;;;3.38;;
72864;SDS011;61000;48.120;11.548;2023-03-23T00:26:30;3.28;;;2.88;;
72864;SDS011;61000;48.120;11.548;2023-03-23T00:28:58;3.80;;;3.35;;
72864;SDS011;61000;48.120;11.548;2023-03-23T00:31:26;3.30;;;2.80;;
72864;SDS011;61000;48.120;11.548;2023-03-23T00:33:56;3.55;;;2.47;;
72864;SDS011;61000;48.120;11.548;2023-03-23T00:36:26;5.63;;;2.90;;
72864;SDS011;61000;48.120;11.548;2023-03-23T00:38:53;3.78;;;2.60;;
72864;SDS011;61000;48.120;11.548;2023-03-23T00:41:23;5.25;;;3.25;;
72864;SDS011;61000;48.120;11.548;2023-03-23T00:43:53;3.40;;;2.90;;
72864;SDS011;61000;48.120;11.548;2023-03-23T00:46:21;5.70;;;3.38;;
72864;SDS011;61000;48.120;11.548;2023-03-23T00:48:48;4.05;;;2.95;;
72864;SDS011;61000;48.120;11.548;2023-03-23T00:51:16;4.03;;;2.83;;
72864;SDS011;61000;48.120;11.548;2023-03-23T00:53:43;4.22;;;2.90;;
72864;SDS011;61000;48.120;11.548;2023-03-23T00:56:10;5.97;;;3.20;;
72864;SDS011;61000;48.120;11.548;2023-03-23T00:58:38;3.38;;;2.70;;
72864;SDS011;61000;48.120;11.548;2023-03-23T01:01:06;4.20;;;2.78;;
72864;SDS011;61000;48.120;11.548;2023-03-23T01:03:34;3.55;;;2.78;;
72864;SDS011;61000;48.120;11.548;2023-03-23T01:06:05;3.17;;;2.72;;
72864;SDS011;61000;48.120;11.548;2023-03-23T01:08:33;3.38;;;2.65;;
72864;SDS011;61000;48.120;11.548;2023-03-23T01:11:02;3.88;;;2.75;;
72864;SDS011;61000;48.120;11.548;2023-03-23T01:13:30;4.38;;;2.63;;
72864;SDS011;61000;48.120;11.548;2023-03-23T01:15:57;3.67;;;2.30;;
72864;SDS011;61000;48.120;11.548;2023-03-23T01:18:26;4.15;;;2.50;;
72864;SDS011;61000;48.120;11.548;2023-03-23T01:20:53;4.75;;;2.78;;
72864;SDS011;61000;48.120;11.548;2023-03-23T01:23:20;3.42;;;2.55;;
72864;SDS011;61000;48.120;11.548;2023-03-23T01:25:46;4.63;;;2.38;;
72864;SDS011;61000;48.120;11.548;2023-03-23T01:28:14;5.03;;;2.45;;
72864;SDS011;61000;48.120;11.548;2023-03-23T01:30:41;6.30;;;2.30;;
72864;SDS011;61000;48.120;11.548;2023-03-23T01:33:08;3.78;;;2.58;;
72864;SDS011;61000;48.120;11.548;2023-03-23T01:35:38;4.68;;;2.88;;
72864;SDS011;61000;48.120;11.548;2023-03-23T01:38:05;3.67;;;2.85;;
72864;SDS011;61000;48.120;11.548;2023-03-23T01:40:32;2.60;;;2.30;;
72864;SDS011;61000;48.120;11.548;2023-03-23T01:42:59;3.15;;;2.72;;
72864;SDS011;61000;48.120;11.548;2023-03-23T01:45:28;4.28;;;2.67;;
72864;SDS011;61000;48.120;11.548;2023-03-23T01:47:59;3.05;;;2.40;;
72864;SDS011;61000;48.120;11.548;2023-03-23T01:50:44;3.20;;;2.40;;
72864;SDS011;61000;48.120;11.548;2023-03-23T01:53:18;3.20;;;2.55;;
72864;SDS011;61000;48.120;11.548;2023-03-23T01:55:46;2.90;;;2.40;;
72864;SDS011;61000;48.120;11.548;2023-03-23T01:58:18;3.63;;;2.60;;
72864;SDS011;61000;48.120;11.548;2023-03-23T02:00:50;2.78;;;2.40;;
72864;SDS011;61000;48.120;11.548;2023-03-23T02:03:18;2.70;;;2.50;;
72864;SDS011;61000;48.120;11.548;2023-03-23T02:05:49;2.17;;;2.08;;
72864;SDS011;61000;48.120;11.548;2023-03-23T02:08:31;3.58;;;2.55;;
72864;SDS011;61000;48.120;11.548;2023-03-23T02:11:00;7.18;;;1.95;;
72864;SDS011;61000;48.120;11.548;2023-03-23T02:13:28;3.33;;;2.00;;
72864;SDS011;61000;48.120;11.548;2023-03-23T02:15:58;2.88;;;2.00;;
72864;SDS011;61000;48.120;11.548;2023-03-23T02:18:44;2.65;;;2.33;;
72864;SDS011;61000;48.120;11.548;2023-03-23T02:21:29;2.80;;;2.10;;
72864;SDS011;61000;48.120;11.548;2023-03-23T02:24:22;2.38;;;2.10;;
72864;SDS011;61000;48.120;11.548;2023-03-23T02:27:05;3.55;;;2.10;;
72864;SDS011;61000;48.120;11.548;2023-03-23T02:32:47;3.30;;;2.28;;
72864;SDS011;61000;48.120;11.548;2023-03-23T02:35:38;5.32;;;2.70;;
72864;SDS011;61000;48.120;11.548;2023-03-23T02:38:09;2.53;;;2.33;;
72864;SDS011;61000;48.120;11.548;2023-03-23T02:40:44;2.50;;;2.28;;
72864;SDS011;61000;48.120;11.548;2023-03-23T02:43:13;3.80;;;2.72;;
72864;SDS011;61000;48.120;11.548;2023-03-23T02:45:44;3.17;;;2.78;;
72864;SDS011;61000;48.120;11.548;2023-03-23T02:48:12;3.15;;;2.30;;
72864;SDS011;61000;48.120;11.548;2023-03-23T02:50:44;3.30;;;2.75;;
72864;SDS011;61000;48.120;11.548;2023-03-23T02:53:14;2.35;;;2.15;;
72864;SDS011;61000;48.120;11.548;2023-03-23T02:55:45;2.58;;;2.38;;
72864;SDS011;61000;48.120;11.548;2023-03-23T02:58:16;2.70;;;2.50;;
72864;SDS011;61000;48.120;11.548;2023-03-23T03:00:43;2.80;;;2.50;;
72864;SDS011;61000;48.120;11.548;2023-03-23T03:03:15;3.67;;;2.38;;
72864;SDS011;61000;48.120;11.548;2023-03-23T03:05:47;7.28;;;2.83;;
72864;SDS011;61000;48.120;11.548;2023-03-23T03:08:24;3.97;;;2.40;;
72864;SDS011;61000;48.120;11.548;2023-03-23T03:10:57;2.58;;;2.38;;
72864;SDS011;61000;48.120;11.548;2023-03-23T03:13:32;3.13;;;2.83;;
72864;SDS011;61000;48.120;11.548;2023-03-23T03:16:07;3.78;;;2.60;;
72864;SDS011;61000;48.120;11.548;2023-03-23T03:18:41;4.20;;;3.00;;
72864;SDS011;61000;48.120;11.548;2023-03-23T03:21:13;2.97;;;2.67;;
72864;SDS011;61000;48.120;11.548;2023-03-23T03:23:43;2.50;;;2.30;;
72864;SDS011;61000;48.120;11.548;2023-03-23T03:26:14;3.90;;;3.10;;
72864;SDS011;61000;48.120;11.548;2023-03-23T03:28:53;2.88;;;2.55;;
72864;SDS011;61000;48.120;11.548;2023-03-23T03:31:21;3.00;;;2.70;;
72864;SDS011;61000;48.120;11.548;2023-03-23T03:33:53;2.60;;;2.40;;
72864;SDS011;61000;48.120;11.548;2023-03-23T03:36:23;4.65;;;2.83;;
72864;SDS011;61000;48.120;11.548;2023-03-23T03:38:53;4.50;;;2.72;;
72864;SDS011;61000;48.120;11.548;2023-03-23T03:41:22;3.85;;;2.70;;
72864;SDS011;61000;48.120;11.548;2023-03-23T03:43:50;4.88;;;2.13;;
72864;SDS011;61000;48.120;11.548;2023-03-23T03:46:16;3.72;;;2.40;;
72864;SDS011;61000;48.120;11.548;2023-03-23T03:48:43;2.80;;;2.42;;
72864;SDS011;61000;48.120;11.548;2023-03-23T03:51:10;7.57;;;3.33;;
72864;SDS011;61000;48.120;11.548;2023-03-23T03:53:43;3.60;;;2.60;;
72864;SDS011;61000;48.120;11.548;2023-03-23T03:56:10;2.60;;;2.22;;
72864;SDS011;61000;48.120;11.548;2023-03-23T03:58:44;3.42;;;2.33;;
72864;SDS011;61000;48.120;11.548;2023-03-23T04:01:37;2.47;;;2.28;;
72864;SDS011;61000;48.120;11.548;2023-03-23T04:04:04;2.45;;;2.20;;
72864;SDS011;61000;48.120;11.548;2023-03-23T04:06:34;4.55;;;2.53;;
72864;SDS011;61000;48.120;11.548;2023-03-23T04:09:04;4.05;;;2.63;;
72864;SDS011;61000;48.120;11.548;2023-03-23T04:11:33;4.07;;;2.80;;
72864;SDS011;61000;48.120;11.548;2023-03-23T04:14:19;3.50;;;2.42;;
72864;SDS011;61000;48.120;11.548;2023-03-23T04:16:47;3.53;;;2.65;;
72864;SDS011;61000;48.120;11.548;2023-03-23T04:19:17;5.45;;;2.75;;
72864;SDS011;61000;48.120;11.548;2023-03-23T04:21:44;2.53;;;2.22;;
72864;SDS011;61000;48.120;11.548;2023-03-23T04:24:16;3.63;;;2.67;;
72864;SDS011;61000;48.120;11.548;2023-03-23T04:26:47;5.22;;;2.50;;
72864;SDS011;61000;48.120;11.548;2023-03-23T04:29:21;4.60;;;2.45;;
72864;SDS011;61000;48.120;11.548;2023-03-23T04:32:11;6.20;;;3.10;;
72864;SDS011;61000;48.120;11.548;2023-03-23T04:34:42;3.45;;;2.67;;
72864;SDS011;61000;48.120;11.548;2023-03-23T04:37:10;2.92;;;2.58;;
72864;SDS011;61000;48.120;11.548;2023-03-23T04:39:40;6.15;;;2.30;;
72864;SDS011;61000;48.120;11.548;2023-03-23T04:42:10;2.88;;;2.50;;
72864;SDS011;61000;48.120;11.548;2023-03-23T04:45:06;3.38;;;2.72;;
72864;SDS011;61000;48.120;11.548;2023-03-23T04:47:37;4.40;;;2.47;;
72864;SDS011;61000;48.120;11.548;2023-03-23T04:50:16;8.70;;;2.90;;
72864;SDS011;61000;48.120;11.548;2023-03-23T04:52:44;5.82;;;2.40;;
72864;SDS011;61000;48.120;11.548;2023-03-23T04:55:14;4.65;;;2.90;;
72864;SDS011;61000;48.120;11.548;2023-03-23T04:57:46;5.38;;;2.40;;
72864;SDS011;61000;48.120;11.548;2023-03-23T05:00:33;2.70;;;2.40;;
72864;SDS011;61000;48.120;11.548;2023-03-23T05:03:02;2.80;;;2.50;;
72864;SDS011;61000;48.120;11.548;2023-03-23T05:05:30;6.25;;;2.40;;
72864;SDS011;61000;48.120;11.548;2023-03-23T05:08:03;2.63;;;2.42;;
72864;SDS011;61000;48.120;11.548;2023-03-23T05:10:35;3.17;;;2.55;;
72864;SDS011;61000;48.120;11.548;2023-03-23T05:13:07;3.97;;;2.50;;
72864;SDS011;61000;48.120;11.548;2023-03-23T05:15:34;2.60;;;2.40;;
72864;SDS011;61000;48.120;11.548;2023-03-23T05:18:02;4.35;;;2.80;;
72864;SDS011;61000;48.120;11.548;2023-03-23T05:20:31;2.63;;;2.22;;
72864;SDS011;61000;48.120;11.548;2023-03-23T05:23:04;2.58;;;2.33;;
72864;SDS011;61000;48.120;11.548;2023-03-23T05:25:35;3.00;;;2.53;;
72864;SDS011;61000;48.120;11.548;2023-03-23T05:28:17;2.60;;;2.40;;
72864;SDS011;61000;48.120;11.548;2023-03-23T05:30:57;2.85;;;2.65;;
72864;SDS011;61000;48.120;11.548;2023-03-23T05:33:28;3.35;;;2.75;;
72864;SDS011;61000;48.120;11.548;2023-03-23T05:36:15;4.07;;;2.80;;
72864;SDS011;61000;48.120;11.548;2023-03-23T05:38:59;4.30;;;2.63;;
72864;SDS011;61000;48.120;11.548;2023-03-23T05:41:42;2.70;;;2.50;;
72864;SDS011;61000;48.120;11.548;2023-03-23T05:44:09;3.53;;;2.25;;
72864;SDS011;61000;48.120;11.548;2023-03-23T05:46:46;4.30;;;3.28;;
72864;SDS011;61000;48.120;11.548;2023-03-23T05:49:14;7.13;;;3.15;;
72864;SDS011;61000;48.120;11.548;2023-03-23T05:51:43;6.70;;;3.55;;
72864;SDS011;61000;48.120;11.548;2023-03-23T05:54:11;4.35;;;3.08;;
72864;SDS011;61000;48.120;11.548;2023-03-23T05:56:40;5.88;;;3.05;;
72864;SDS011;61000;48.120;11.548;2023-03-23T05:59:23;3.33;;;3.03;;
72864;SDS011;61000;48.120;11.548;2023-03-23T06:01:53;5.57;;;2.63;;
72864;SDS011;61000;48.120;11.548;2023-03-23T06:04:20;5.32;;;2.92;;
72864;SDS011;61000;48.120;11.548;2023-03-23T06:07:00;4.28;;;3.00;;
72864;SDS011;61000;48.120;11.548;2023-03-23T06:09:28;11.23;;;3.03;;
72864;SDS011;61000;48.120;11.548;2023-03-23T06:12:20;6.32;;;2.72;;
72864;SDS011;61000;48.120;11.548;2023-03-23T06:15:09;9.10;;;3.40;;
72864;SDS011;61000;48.120;11.548;2023-03-23T06:18:10;7.00;;;3.22;;
72864;SDS011;61000;48.120;11.548;2023-03-23T06:21:03;9.45;;;3.13;;
72864;SDS011;61000;48.120;11.548;2023-03-23T06:24:03;2.45;;;2.25;;
72864;SDS011;61000;48.120;11.548;2023-03-23T06:26:32;4.88;;;2.78;;
72864;SDS011;61000;48.120;11.548;2023-03-23T06:29:03;3.83;;;2.58;;
72864;SDS011;61000;48.120;11.548;2023-03-23T06:31:38;6.63;;;2.80;;
72864;SDS011;61000;48.120;11.548;2023-03-23T06:34:06;7.30;;;3.30;;
72864;SDS011;61000;48.120;11.548;2023-03-23T06:37:02;2.88;;;2.60;;
72864;SDS011;61000;48.120;11.548;2023-03-23T06:39:56;5.82;;;3.25;;
72864;SDS011;61000;48.120;11.548;2023-03-23T06:42:28;3.55;;;2.65;;
72864;SDS011;61000;48.120;11.548;2023-03-23T06:45:20;5.20;;;3.38;;
72864;SDS011;61000;48.120;11.548;2023-03-23T06:47:53;4.03;;;3.45;;
72864;SDS011;61000;48.120;11.548;2023-03-23T06:50:20;5.13;;;3.00;;
72864;SDS011;61000;48.120;11.548;2023-03-23T06:52:48;3.08;;;2.80;;
72864;SDS011;61000;48.120;11.548;2023-03-23T06:55:17;3.45;;;2.80;;
72864;SDS011;61000;48.120;11.548;2023-03-23T06:57:44;6.82;;;2.90;;
72864;SDS011;61000;48.120;11.548;2023-03-23T07:00:12;5.65;;;2.90;;
72864;SDS011;61000;48.120;11.548;2023-03-23T07:02:41;4.38;;;2.63;;
72864;SDS011;61000;48.120;11.548;2023-03-23T07:05:11;4.65;;;2.80;;
72864;SDS011;61000;48.120;11.548;2023-03-23T07:07:39;4.20;;;2.50;;
72864;SDS011;61000;48.120;11.548;2023-03-23T07:10:20;4.50;;;2.90;;
72864;SDS011;61000;48.120;11.548;2023-03-23T07:12:48;3.92;;;2.80;;
72864;SDS011;61000;48.120;11.548;2023-03-23T07:15:15;3.78;;;2.85;;
72864;SDS011;61000;48.120;11.548;2023-03-23T07:17:47;3.30;;;2.90;;
72864;SDS011;61000;48.120;11.548;2023-03-23T07:20:21;5.53;;;3.10;;
72864;SDS011;61000;48.120;11.548;2023-03-23T07:22:48;4.70;;;2.90;;
72864;SDS011;61000;48.120;11.548;2023-03-23T07:25:36;3.38;;;3.08;;
72864;SDS011;61000;48.120;11.548;2023-03-23T07:28:03;3.58;;;2.60;;
72864;SDS011;61000;48.120;11.548;2023-03-23T07:30:30;5.13;;;3.00;;
72864;SDS011;61000;48.120;11.548;2023-03-23T07:32:57;4.55;;;3.00;;
72864;SDS011;61000;48.120;11.548;2023-03-23T07:35:26;4.70;;;2.83;;
72864;SDS011;61000;48.120;11.548;2023-03-23T07:38:00;4.80;;;2.90;;
72864;SDS011;61000;48.120;11.548;2023-03-23T07:40:28;5.10;;;3.17;;
72864;SDS011;61000;48.120;11.548;2023-03-23T07:43:01;16.40;;;3.97;;
72864;SDS011;61000;48.120;11.548;2023-03-23T07:45:52;2.88;;;2.50;;
72864;SDS011;61000;48.120;11.548;2023-03-23T07:48:22;4.95;;;2.50;;
72864;SDS011;61000;48.120;11.548;2023-03-23T07:50:52;4.20;;;2.50;;
72864;SDS011;61000;48.120;11.548;2023-03-23T07:53:20;4.13;;;2.60;;
72864;SDS011;61000;48.120;11.548;2023-03-23T07:55:55;2.80;;;2.40;;
72864;SDS011;61000;48.120;11.548;2023-03-23T07:58:34;2.83;;;2.17;;
72864;SDS011;61000;48.120;11.548;2023-03-23T08:01:01;5.13;;;2.45;;
72864;SDS011;61000;48.120;11.548;2023-03-23T08:03:30;2.55;;;2.30;;
72864;SDS011;61000;48.120;11.548;2023-03-23T08:06:18;4.80;;;2.67;;
72864;SDS011;61000;48.120;11.548;2023-03-23T08:09:00;4.28;;;2.55;;
72864;SDS011;61000;48.120;11.548;2023-03-23T08:11:59;3.15;;;2.10;;
72864;SDS011;61000;48.120;11.548;2023-03-23T08:15:05;5.22;;;2.30;;
72864;SDS011;61000;48.120;11.548;2023-03-23T08:17:49;2.47;;;2.20;;
72864;SDS011;61000;48.120;11.548;2023-03-23T08:20:36;5.75;;;2.83;;
72864;SDS011;61000;48.120;11.548;2023-03-23T08:23:23;7.32;;;2.67;;
72864;SDS011;61000;48.120;11.548;2023-03-23T08:26:09;3.70;;;2.67;;
72864;SDS011;61000;48.120;11.548;2023-03-23T08:28:54;2.80;;;2.50;;
72864;SDS011;61000;48.120;11.548;2023-03-23T08:31:39;3.13;;;2.45;;
72864;SDS011;61000;48.120;11.548;2023-03-23T08:34:18;5.82;;;2.70;;
72864;SDS011;61000;48.120;11.548;2023-03-23T08:37:02;3.58;;;2.33;;
72864;SDS011;61000;48.120;11.548;2023-03-23T08:39:51;4.55;;;2.97;;
72864;SDS011;61000;48.120;11.548;2023-03-23T08:42:31;5.70;;;4.20;;
72864;SDS011;61000;48.120;11.548;2023-03-23T08:45:10;5.57;;;2.88;;
72864;SDS011;61000;48.120;11.548;2023-03-23T08:48:12;2.30;;;2.10;;
72864;SDS011;61000;48.120;11.548;2023-03-23T08:50:55;3.90;;;2.47;;
72864;SDS011;61000;48.120;11.548;2023-03-23T08:53:45;7.45;;;2.90;;
72864;SDS011;61000;48.120;11.548;2023-03-23T08:56:33;3.63;;;2.35;;
72864;SDS011;61000;48.120;11.548;2023-03-23T08:59:19;2.67;;;2.15;;
72864;SDS011;61000;48.120;11.548;2023-03-23T09:02:01;8.40;;;2.50;;
72864;SDS011;61000;48.120;11.548;2023-03-23T09:04:45;6.70;;;2.38;;
72864;SDS011;61000;48.120;11.548;2023-03-23T09:07:38;4.25;;;2.58;;
72864;SDS011;61000;48.120;11.548;2023-03-23T09:10:06;5.28;;;2.47;;
72864;SDS011;61000;48.120;11.548;2023-03-23T09:12:36;3.33;;;2.00;;
72864;SDS011;61000;48.120;11.548;2023-03-23T09:15:03;6.57;;;3.15;;
72864;SDS011;61000;48.120;11.548;2023-03-23T09:17:34;5.35;;;2.40;;
72864;SDS011;61000;48.120;11.548;2023-03-23T09:20:02;5.07;;;3.08;;
72864;SDS011;61000;48.120;11.548;2023-03-23T09:22:35;2.35;;;2.15;;
72864;SDS011;61000;48.120;11.548;2023-03-23T09:25:04;3.58;;;2.85;;
72864;SDS011;61000;48.120;11.548;2023-03-23T09:27:31;4.15;;;2.10;;
72864;SDS011;61000;48.120;11.548;2023-03-23T09:30:00;3.42;;;2.20;;
72864;SDS011;61000;48.120;11.548;2023-03-23T09:32:27;5.43;;;2.22;;
72864;SDS011;61000;48.120;11.548;2023-03-23T09:34:54;4.25;;;2.25;;
72864;SDS011;61000;48.120;11.548;2023-03-23T09:37:21;3.17;;;1.95;;
72864;SDS011;61000;48.120;11.548;2023-03-23T09:39:48;3.65;;;2.13;;
72864;SDS011;61000;48.120;11.548;2023-03-23T09:42:21;1.92;;;1.80;;
72864;SDS011;61000;48.120;11.548;2023-03-23T09:45:08;5.22;;;2.97;;
72864;SDS011;61000;48.120;11.548;2023-03-23T09:47:43;2.50;;;2.17;;
72864;SDS011;61000;48.120;11.548;2023-03-23T09:50:15;3.95;;;2.47;;
72864;SDS011;61000;48.120;11.548;2023-03-23T09:52:45;2.72;;;2.00;;
72864;SDS011;61000;48.120;11.548;2023-03-23T09:55:17;3.75;;;2.00;;
72864;SDS011;61000;48.120;11.548;2023-03-23T09:57:47;4.07;;;2.80;;
72864;SDS011;61000;48.120;11.548;2023-03-23T10:00:20;5.80;;;2.58;;
72864;SDS011;61000;48.120;11.548;2023-03-23T10:02:52;3.40;;;2.90;;
72864;SDS011;61000;48.120;11.548;2023-03-23T10:05:30;3.67;;;3.30;;
72864;SDS011;61000;48.120;11.548;2023-03-23T10:08:00;6.55;;;3.50;;
72864;SDS011;61000;48.120;11.548;2023-03-23T10:10:31;4.18;;;3.70;;
72864;SDS011;61000;48.120;11.548;2023-03-23T10:13:07;5.65;;;3.88;;
72864;SDS011;61000;48.120;11.548;2023-03-23T10:15:43;4.53;;;3.80;;
72864;SDS011;61000;48.120;11.548;2023-03-23T10:18:12;3.90;;;3.50;;
72864;SDS011;61000;48.120;11.548;2023-03-23T10:20:45;5.32;;;3.83;;
72864;SDS011;61000;48.120;11.548;2023-03-23T10:23:25;4.93;;;3.67;;
72864;SDS011;61000;48.120;11.548;2023-03-23T10:26:09;4.55;;;3.35;;
72864;SDS011;61000;48.120;11.548;2023-03-23T10:28:44;3.90;;;3.50;;
72864;SDS011;61000;48.120;11.548;2023-03-23T10:31:17;6.68;;;3.88;;
72864;SDS011;61000;48.120;11.548;2023-03-23T10:33:49;11.57;;;4.28;;
72864;SDS011;61000;48.120;11.548;2023-03-23T10:36:18;4.70;;;3.22;;
72864;SDS011;61000;48.120;11.548;2023-03-23T10:38:49;5.72;;;3.30;;
72864;SDS011;61000;48.120;11.548;2023-03-23T10:41:22;3.42;;;3.00;;
72864;SDS011;61000;48.120;11.548;2023-03-23T10:43:49;5.38;;;3.13;;
72864;SDS011;61000;48.120;11.548;2023-03-23T10:46:22;5.43;;;2.90;;
72864;SDS011;61000;48.120;11.548;2023-03-23T10:49:02;3.25;;;2.50;;
72864;SDS011;61000;48.120;11.548;2023-03-23T10:51:33;3.20;;;2.58;;
72864;SDS011;61000;48.120;11.548;2023-03-23T10:54:03;3.50;;;2.65;;
72864;SDS011;61000;48.120;11.548;2023-03-23T10:56:35;7.63;;;2.58;;
72864;SDS011;61000;48.120;11.548;2023-03-23T10:59:11;4.00;;;3.05;;
72864;SDS011;61000;48.120;11.548;2023-03-23T11:01:42;5.75;;;2.80;;
72864;SDS011;61000;48.120;11.548;2023-03-23T11:04:13;5.78;;;2.90;;
72864;SDS011;61000;48.120;11.548;2023-03-23T11:06:43;2.92;;;2.42;;
72864;SDS011;61000;48.120;11.548;2023-03-23T11:09:13;7.72;;;2.90;;
72864;SDS011;61000;48.120;11.548;2023-03-23T11:11:43;5.45;;;2.80;;
72864;SDS011;61000;48.120;11.548;2023-03-23T11:14:16;5.18;;;3.20;;
72864;SDS011;61000;48.120;11.548;2023-03-23T11:16:49;3.45;;;2.50;;
72864;SDS011;61000;48.120;11.548;2023-03-23T11:19:21;3.83;;;3.42;;
72864;SDS011;61000;48.120;11.548;2023-03-23T11:21:50;5.78;;;3.42;;
72864;SDS011;61000;48.120;11.548;2023-03-23T11:24:20;4.22;;;2.40;;
72864;SDS011;61000;48.120;11.548;2023-03-23T11:26:48;3.92;;;2.63;;
72864;SDS011;61000;48.120;11.548;2023-03-23T11:29:18;5.18;;;2.60;;
72864;SDS011;61000;48.120;11.548;2023-03-23T11:31:49;3.33;;;2.67;;
72864;SDS011;61000;48.120;11.548;2023-03-23T11:34:20;3.28;;;2.83;;
72864;SDS011;61000;48.120;11.548;2023-03-23T11:36:50;3.13;;;2.60;;
72864;SDS011;61000;48.120;11.548;2023-03-23T11:39:20;3.38;;;2.80;;
72864;SDS011;61000;48.120;11.548;2023-03-23T11:41:49;5.88;;;2.95;;
72864;SDS011;61000;48.120;11.548;2023-03-23T11:44:16;3.97;;;2.97;;
72864;SDS011;61000;48.120;11.548;2023-03-23T11:46:46;5.20;;;2.83;;
72864;SDS011;61000;48.120;11.548;2023-03-23T11:49:22;4.47;;;3.03;;
72864;SDS011;61000;48.120;11.548;2023-03-23T11:51:59;4.18;;;2.83;;
72864;SDS011;61000;48.120;11.548;2023-03-23T11:54:32;3.95;;;2.38;;
72864;SDS011;61000;48.120;11.548;2023-03-23T11:57:00;4.28;;;2.40;;
72864;SDS011;61000;48.120;11.548;2023-03-23T11:59:29;4.80;;;3.15;;
72864;SDS011;61000;48.120;11.548;2023-03-23T12:02:04;4.60;;;3.13;;
72864;SDS011;61000;48.120;11.548;2023-03-23T12:04:55;3.80;;;2.95;;
72864;SDS011;61000;48.120;11.548;2023-03-23T12:07:35;3.40;;;3.05;;
72864;SDS011;61000;48.120;11.548;2023-03-23T12:10:21;5.40;;;2.88;;
72864;SDS011;61000;48.120;11.548;2023-03-23T12:12:56;4.80;;;2.78;;
72864;SDS011;61000;48.120;11.548;2023-03-23T12:15:34;3.80;;;2.72;;
72864;SDS011;61000;48.120;11.548;2023-03-23T12:18:12;5.50;;;3.15;;
72864;SDS011;61000;48.120;11.548;2023-03-23T12:20:50;6.10;;;2.90;;
72864;SDS011;61000;48.120;11.548;2023-03-23T12:23:25;4.75;;;2.55;;
72864;SDS011;61000;48.120;11.548;2023-03-23T12:26:03;4.60;;;2.53;;
72864;SDS011;61000;48.120;11.548;2023-03-23T12:28:42;5.88;;;3.15;;
72864;SDS011;61000;48.120;11.548;2023-03-23T12:31:19;3.63;;;2.60;;
72864;SDS011;61000;48.120;11.548;2023-03-23T12:33:56;5.10;;;2.60;;
72864;SDS011;61000;48.120;11.548;2023-03-23T12:36:31;3.63;;;3.03;;
72864;SDS011;61000;48.120;11.548;2023-03-23T12:39:14;3.20;;;2.70;;
72864;SDS011;61000;48.120;11.548;2023-03-23T12:41:59;6.72;;;3.13;;
72864;SDS011;61000;48.120;11.548;2023-03-23T12:44:35;4.90;;;2.80;;
72864;SDS011;61000;48.120;11.548;2023-03-23T12:47:12;5.88;;;2.75;;
72864;SDS011;61000;48.120;11.548;2023-03-23T12:49:50;7.28;;;2.83;;
72864;SDS011;61000;48.120;11.548;2023-03-23T12:52:23;3.03;;;2.72;;
72864;SDS011;61000;48.120;11.548;2023-03-23T12:54:56;3.33;;;2.92;;
72864;SDS011;61000;48.120;11.548;2023-03-23T12:57:29;4.38;;;2.67;;
72864;SDS011;61000;48.120;11.548;2023-03-23T13:00:03;3.05;;;2.40;;
72864;SDS011;61000;48.120;11.548;2023-03-23T13:02:39;7.28;;;2.42;;
72864;SDS011;61000;48.120;11.548;2023-03-23T13:05:11;2.10;;;1.88;;
72864;SDS011;61000;48.120;11.548;2023-03-23T13:07:42;3.70;;;1.70;;
72864;SDS011;61000;48.120;11.548;2023-03-23T13:10:14;2.92;;;2.00;;
72864;SDS011;61000;48.120;11.548;2023-03-23T13:12:46;3.40;;;1.88;;
72864;SDS011;61000;48.120;11.548;2023-03-23T13:15:20;8.27;;;2.20;;
72864;SDS011;61000;48.120;11.548;2023-03-23T13:18:01;4.43;;;1.65;;
72864;SDS011;61000;48.120;11.548;2023-03-23T13:20:41;2.20;;;1.83;;
72864;SDS011;61000;48.120;11.548;2023-03-23T13:23:17;1.38;;;1.20;;
72864;SDS011;61000;48.120;11.548;2023-03-23T13:25:51;3.47;;;2.05;;
72864;SDS011;61000;48.120;11.548;2023-03-23T13:28:23;3.42;;;1.90;;
72864;SDS011;61000;48.120;11.548;2023-03-23T13:30:57;3.47;;;1.52;;
72864;SDS011;61000;48.120;11.548;2023-03-23T13:33:28;2.53;;;1.77;;
72864;SDS011;61000;48.120;11.548;2023-03-23T13:36:02;2.78;;;1.90;;
72864;SDS011;61000;48.120;11.548;2023-03-23T13:38:34;5.78;;;1.80;;
72864;SDS011;61000;48.120;11.548;2023-03-23T13:41:09;2.38;;;1.95;;
72864;SDS011;61000;48.120;11.548;2023-03-23T13:43:39;3.45;;;1.70;;
72864;SDS011;61000;48.120;11.548;2023-03-23T13:46:10;4.47;;;2.10;;
72864;SDS011;61000;48.120;11.548;2023-03-23T13:48:40;2.13;;;1.90;;
72864;SDS011;61000;48.120;11.548;2023-03-23T13:51:25;1.52;;;1.42;;
72864;SDS011;61000;48.120;11.548;2023-03-23T13:56:56;2.85;;;1.30;;
72864;SDS011;61000;48.120;11.548;2023-03-23T13:59:33;4.78;;;2.08;;
72864;SDS011;61000;48.120;11.548;2023-03-23T14:04:53;3.90;;;2.10;;
72864;SDS011;61000;48.120;11.548;2023-03-23T14:07:22;4.97;;;1.95;;
72864;SDS011;61000;48.120;11.548;2023-03-23T14:09:49;1.80;;;1.70;;
72864;SDS011;61000;48.120;11.548;2023-03-23T14:12:18;3.22;;;1.80;;
72864;SDS011;61000;48.120;11.548;2023-03-23T14:14:47;2.88;;;1.80;;
72864;SDS011;61000;48.120;11.548;2023-03-23T14:17:16;4.45;;;1.77;;
72864;SDS011;61000;48.120;11.548;2023-03-23T14:19:46;3.50;;;1.83;;
72864;SDS011;61000;48.120;11.548;2023-03-23T14:22:18;3.78;;;1.50;;
72864;SDS011;61000;48.120;11.548;2023-03-23T14:24:51;1.60;;;1.50;;
72864;SDS011;61000;48.120;11.548;2023-03-23T14:27:26;2.13;;;1.83;;
72864;SDS011;61000;48.120;11.548;2023-03-23T14:29:57;2.10;;;1.85;;
72864;SDS011;61000;48.120;11.548;2023-03-23T14:32:25;3.25;;;2.08;;
72864;SDS011;61000;48.120;11.548;2023-03-23T14:34:56;5.18;;;1.90;;
72864;SDS011;61000;48.120;11.548;2023-03-23T14:37:23;3.53;;;1.88;;
72864;SDS011;61000;48.120;11.548;2023-03-23T14:39:53;3.30;;;1.98;;
72864;SDS011;61000;48.120;11.548;2023-03-23T14:42:23;3.67;;;1.80;;
72864;SDS011;61000;48.120;11.548;2023-03-23T14:44:53;6.35;;;1.92;;
72864;SDS011;61000;48.120;11.548;2023-03-23T14:47:21;4.65;;;1.80;;
72864;SDS011;61000;48.120;11.548;2023-03-23T14:49:52;3.28;;;1.80;;
72864;SDS011;61000;48.120;11.548;2023-03-23T14:52:21;2.28;;;1.63;;
72864;SDS011;61000;48.120;11.548;2023-03-23T14:54:49;5.72;;;1.85;;
72864;SDS011;61000;48.120;11.548;2023-03-23T14:57:18;3.75;;;2.00;;
72864;SDS011;61000;48.120;11.548;2023-03-23T14:59:46;3.83;;;2.08;;
72864;SDS011;61000;48.120;11.548;2023-03-23T15:02:14;2.75;;;1.80;;
72864;SDS011;61000;48.120;11.548;2023-03-23T15:04:45;10.20;;;2.45;;
72864;SDS011;61000;48.120;11.548;2023-03-23T15:07:15;2.13;;;1.75;;
72864;SDS011;61000;48.120;11.548;2023-03-23T15:09:43;2.78;;;1.60;;
72864;SDS011;61000;48.120;11.548;2023-03-23T15:12:20;2.50;;;1.60;;
72864;SDS011;61000;48.120;11.548;2023-03-23T15:14:51;3.72;;;1.67;;
72864;SDS011;61000;48.120;11.548;2023-03-23T15:17:20;4.20;;;1.88;;
72864;SDS011;61000;48.120;11.548;2023-03-23T15:19:49;1.92;;;1.67;;